RYR81WZ LIRP-EKCH
Flight info
| Callsign | RYR81WZ |
|---|---|
| Flight time | 1h 53m |
| Altitude | FL370 |
| Route | BEROK L153 OSBUL/N0437F340 DCT ELTAR DCT TAGIP DCT GUNGO DCT BRENO DCT KONIN DCT EXITI DCT NOBRI M726 ROSOK Q296 MONAK |
| Aircraft | B738/M-VGDW/C |
Departure
| Time | 2026-04-26 18:20 |
|---|---|
| Airport | Pisa International Airport (LIRP) |
Arrival
| Time | 2026-04-26 20:14 |
|---|---|
| Airport | Copenhagen Kastrup Airport (EKCH) |
| Time | Latitude | Longitude | Altitude | Speed | Heading |
|---|---|---|---|---|---|
| 2026-04-26 18:04 | 43.69758 | 10.40091 | 37 ft | 0 kts | 8° |
| 2026-04-26 18:13 | 43.69752 | 10.40090 | 36 ft | 2 kts | 2° |
| 2026-04-26 18:13 | 43.69738 | 10.40094 | 36 ft | 2 kts | 334° |
| 2026-04-26 18:13 | 43.69725 | 10.40106 | 36 ft | 2 kts | 309° |
| 2026-04-26 18:13 | 43.69722 | 10.40111 | 36 ft | 2 kts | 302° |
| 2026-04-26 18:14 | 43.69716 | 10.40145 | 36 ft | 2 kts | 261° |
| 2026-04-26 18:14 | 43.69719 | 10.40159 | 36 ft | 0 kts | 244° |
| 2026-04-26 18:14 | 43.69722 | 10.40168 | 36 ft | 0 kts | 241° |
| 2026-04-26 18:15 | 43.69722 | 10.40167 | 35 ft | 0 kts | 241° |
| 2026-04-26 18:16 | 43.69712 | 10.40141 | 35 ft | 4 kts | 242° |
| 2026-04-26 18:16 | 43.69704 | 10.40120 | 35 ft | 4 kts | 242° |
| 2026-04-26 18:17 | 43.69676 | 10.40064 | 35 ft | 6 kts | 213° |
| 2026-04-26 18:17 | 43.69630 | 10.40057 | 34 ft | 9 kts | 174° |
| 2026-04-26 18:17 | 43.69567 | 10.40068 | 33 ft | 9 kts | 172° |
| 2026-04-26 18:17 | 43.69502 | 10.40082 | 32 ft | 10 kts | 171° |
| 2026-04-26 18:18 | 43.69414 | 10.40100 | 32 ft | 13 kts | 172° |
| 2026-04-26 18:18 | 43.69347 | 10.40167 | 32 ft | 11 kts | 128° |
| 2026-04-26 18:18 | 43.69303 | 10.40250 | 32 ft | 10 kts | 126° |
| 2026-04-26 18:18 | 43.69251 | 10.40303 | 32 ft | 10 kts | 179° |
| 2026-04-26 18:19 | 43.69205 | 10.40279 | 32 ft | 0 kts | 216° |
| 2026-04-26 18:19 | 43.69200 | 10.40274 | 32 ft | 1 kts | 216° |
| 2026-04-26 18:19 | 43.69191 | 10.40265 | 32 ft | 2 kts | 216° |
| 2026-04-26 18:19 | 43.69167 | 10.40241 | 32 ft | 15 kts | 216° |
| 2026-04-26 18:20 | 43.68870 | 10.39933 | 31 ft | 93 kts | 217° |
| 2026-04-26 18:20 | 43.68167 | 10.39211 | 28 ft | 159 kts | 217° |
| 2026-04-26 18:20 | 43.67169 | 10.38228 | 428 ft | 182 kts | 216° |
| 2026-04-26 18:20 | 43.66837 | 10.37902 | 780 ft | 179 kts | 217° |
| 2026-04-26 18:21 | 43.65155 | 10.36363 | 2049 ft | 182 kts | 216° |
| 2026-04-26 18:21 | 43.64237 | 10.35156 | 2586 ft | 191 kts | 234° |
| 2026-04-26 18:21 | 43.63653 | 10.33449 | 3039 ft | 206 kts | 256° |
| 2026-04-26 18:21 | 43.63518 | 10.31442 | 3503 ft | 222 kts | 276° |
| 2026-04-26 18:22 | 43.64018 | 10.29418 | 4184 ft | 227 kts | 303° |
| 2026-04-26 18:22 | 43.64957 | 10.27679 | 4920 ft | 230 kts | 309° |
| 2026-04-26 18:22 | 43.65974 | 10.25982 | 5636 ft | 233 kts | 314° |
| 2026-04-26 18:22 | 43.67218 | 10.24612 | 6324 ft | 236 kts | 334° |
| 2026-04-26 18:23 | 43.68798 | 10.24119 | 7031 ft | 236 kts | 3° |
| 2026-04-26 18:23 | 43.70390 | 10.24554 | 7741 ft | 236 kts | 21° |
| 2026-04-26 18:23 | 43.71805 | 10.25617 | 8441 ft | 236 kts | 36° |
| 2026-04-26 18:23 | 43.73107 | 10.27011 | 9126 ft | 238 kts | 39° |
| 2026-04-26 18:24 | 43.74403 | 10.28406 | 9792 ft | 241 kts | 34° |
| 2026-04-26 18:24 | 43.75895 | 10.29494 | 10286 ft | 251 kts | 22° |
| 2026-04-26 18:24 | 43.77598 | 10.30333 | 10686 ft | 265 kts | 19° |
| 2026-04-26 18:24 | 43.79338 | 10.31141 | 11321 ft | 268 kts | 19° |
| 2026-04-26 18:25 | 43.81107 | 10.32011 | 11969 ft | 271 kts | 20° |
| 2026-04-26 18:25 | 43.82861 | 10.32914 | 12582 ft | 274 kts | 21° |
| 2026-04-26 18:25 | 43.84640 | 10.33848 | 13203 ft | 277 kts | 21° |
| 2026-04-26 18:25 | 43.86450 | 10.34803 | 13793 ft | 281 kts | 21° |
| 2026-04-26 18:26 | 43.88315 | 10.35669 | 14331 ft | 289 kts | 13° |
| 2026-04-26 18:26 | 43.90364 | 10.35923 | 14702 ft | 303 kts | 356° |
| 2026-04-26 18:26 | 43.92487 | 10.35600 | 15090 ft | 315 kts | 352° |
| 2026-04-26 18:26 | 43.94693 | 10.35135 | 15442 ft | 329 kts | 351° |
| 2026-04-26 18:27 | 43.97016 | 10.34650 | 15759 ft | 344 kts | 352° |
| 2026-04-26 18:27 | 43.99426 | 10.34322 | 16056 ft | 359 kts | 357° |
| 2026-04-26 18:27 | 44.01982 | 10.34295 | 16362 ft | 373 kts | 0° |
| 2026-04-26 18:27 | 44.04619 | 10.34430 | 16627 ft | 387 kts | 2° |
| 2026-04-26 18:28 | 44.07362 | 10.34616 | 16850 ft | 402 kts | 2° |
| 2026-04-26 18:28 | 44.10184 | 10.34803 | 17344 ft | 409 kts | 1° |
| 2026-04-26 18:28 | 44.13033 | 10.34971 | 17960 ft | 412 kts | 1° |
| 2026-04-26 18:28 | 44.15929 | 10.35118 | 18559 ft | 416 kts | 0° |
| 2026-04-26 18:29 | 44.18802 | 10.35109 | 19157 ft | 420 kts | 357° |
| 2026-04-26 18:29 | 44.21737 | 10.34919 | 19772 ft | 423 kts | 355° |
| 2026-04-26 18:29 | 44.24671 | 10.34645 | 20381 ft | 426 kts | 355° |
| 2026-04-26 18:29 | 44.27610 | 10.34343 | 20936 ft | 429 kts | 354° |
| 2026-04-26 18:30 | 44.30590 | 10.34036 | 21483 ft | 433 kts | 354° |
| 2026-04-26 18:30 | 44.33593 | 10.33736 | 22057 ft | 436 kts | 354° |
| 2026-04-26 18:30 | 44.36647 | 10.33440 | 22561 ft | 441 kts | 354° |
| 2026-04-26 18:30 | 44.39681 | 10.33155 | 23110 ft | 444 kts | 355° |
| 2026-04-26 18:31 | 44.42671 | 10.32880 | 23624 ft | 447 kts | 354° |
| 2026-04-26 18:31 | 44.45795 | 10.32597 | 24083 ft | 451 kts | 355° |
| 2026-04-26 18:31 | 44.48898 | 10.32319 | 24611 ft | 454 kts | 354° |
| 2026-04-26 18:31 | 44.52068 | 10.32036 | 25122 ft | 456 kts | 354° |
| 2026-04-26 18:32 | 44.55218 | 10.31756 | 25572 ft | 460 kts | 354° |
| 2026-04-26 18:32 | 44.58417 | 10.31470 | 26058 ft | 462 kts | 354° |
| 2026-04-26 18:32 | 44.61633 | 10.31184 | 26511 ft | 465 kts | 354° |
| 2026-04-26 18:32 | 44.64858 | 10.30896 | 26993 ft | 467 kts | 354° |
| 2026-04-26 18:33 | 44.68124 | 10.30604 | 27702 ft | 464 kts | 354° |
| 2026-04-26 18:33 | 44.71313 | 10.30320 | 28423 ft | 460 kts | 354° |
| 2026-04-26 18:33 | 44.74479 | 10.30038 | 29043 ft | 458 kts | 354° |
| 2026-04-26 18:33 | 44.77671 | 10.29798 | 29656 ft | 457 kts | 356° |
| 2026-04-26 18:34 | 44.80804 | 10.29778 | 30278 ft | 455 kts | 0° |
| 2026-04-26 18:34 | 44.83945 | 10.30156 | 30818 ft | 455 kts | 5° |
| 2026-04-26 18:34 | 44.87087 | 10.30980 | 31247 ft | 458 kts | 10° |
| 2026-04-26 18:34 | 44.90165 | 10.32088 | 31725 ft | 459 kts | 13° |
| 2026-04-26 18:35 | 44.93226 | 10.33332 | 32163 ft | 459 kts | 13° |
| 2026-04-26 18:35 | 44.96297 | 10.34632 | 32670 ft | 458 kts | 14° |
| 2026-04-26 18:35 | 44.99330 | 10.35927 | 33095 ft | 457 kts | 14° |
| 2026-04-26 18:35 | 45.02347 | 10.37208 | 33539 ft | 456 kts | 13° |
| 2026-04-26 18:36 | 45.05401 | 10.38492 | 33953 ft | 456 kts | 13° |
| 2026-04-26 18:36 | 45.08434 | 10.39754 | 34351 ft | 455 kts | 13° |
| 2026-04-26 18:36 | 45.11482 | 10.41012 | 34754 ft | 454 kts | 12° |
| 2026-04-26 18:36 | 45.14531 | 10.42261 | 35062 ft | 454 kts | 12° |
| 2026-04-26 18:37 | 45.17583 | 10.43506 | 35403 ft | 452 kts | 12° |
| 2026-04-26 18:37 | 45.20589 | 10.44729 | 35634 ft | 453 kts | 12° |
| 2026-04-26 18:37 | 45.23623 | 10.45962 | 35931 ft | 452 kts | 12° |
| 2026-04-26 18:37 | 45.26655 | 10.47196 | 36200 ft | 452 kts | 12° |
| 2026-04-26 18:38 | 45.29713 | 10.48440 | 36425 ft | 453 kts | 12° |
| 2026-04-26 18:38 | 45.32773 | 10.49686 | 36674 ft | 452 kts | 12° |
| 2026-04-26 18:38 | 45.35790 | 10.50914 | 37033 ft | 450 kts | 12° |
| 2026-04-26 18:38 | 45.38800 | 10.52140 | 37086 ft | 453 kts | 12° |
| 2026-04-26 18:39 | 45.44850 | 10.54605 | 37098 ft | 452 kts | 12° |
| 2026-04-26 18:39 | 45.50873 | 10.57068 | 37100 ft | 450 kts | 12° |
| 2026-04-26 18:40 | 45.56896 | 10.59533 | 37116 ft | 451 kts | 12° |
| 2026-04-26 18:40 | 45.62927 | 10.62007 | 37115 ft | 451 kts | 12° |
| 2026-04-26 18:41 | 45.69026 | 10.63931 | 37129 ft | 447 kts | 5° |
| 2026-04-26 18:41 | 45.75191 | 10.65251 | 37132 ft | 447 kts | 5° |
| 2026-04-26 18:42 | 45.81396 | 10.66491 | 37148 ft | 447 kts | 5° |
| 2026-04-26 18:42 | 45.87531 | 10.67766 | 37168 ft | 449 kts | 6° |
| 2026-04-26 18:43 | 45.93645 | 10.69658 | 37193 ft | 453 kts | 15° |
| 2026-04-26 18:43 | 45.99462 | 10.73301 | 37214 ft | 458 kts | 24° |
| 2026-04-26 18:44 | 46.05062 | 10.77634 | 37216 ft | 458 kts | 25° |
| 2026-04-26 18:44 | 46.10635 | 10.82062 | 37231 ft | 457 kts | 25° |
| 2026-04-26 18:45 | 46.16243 | 10.86475 | 37234 ft | 458 kts | 25° |
| 2026-04-26 18:45 | 46.21818 | 10.90845 | 37236 ft | 457 kts | 25° |
| 2026-04-26 18:46 | 46.27420 | 10.95211 | 37224 ft | 457 kts | 25° |
| 2026-04-26 18:46 | 46.32980 | 10.99544 | 37235 ft | 457 kts | 25° |
| 2026-04-26 18:47 | 46.38564 | 11.03901 | 37249 ft | 457 kts | 25° |
| 2026-04-26 18:47 | 46.44258 | 11.07965 | 37239 ft | 455 kts | 19° |
| 2026-04-26 18:48 | 46.50094 | 11.11279 | 37246 ft | 452 kts | 17° |
| 2026-04-26 18:48 | 46.56001 | 11.14426 | 37256 ft | 453 kts | 16° |
| 2026-04-26 18:49 | 46.61924 | 11.17608 | 37259 ft | 454 kts | 17° |
| 2026-04-26 18:49 | 46.67825 | 11.20833 | 37261 ft | 452 kts | 17° |
| 2026-04-26 18:50 | 46.73738 | 11.24098 | 37280 ft | 453 kts | 17° |
| 2026-04-26 18:50 | 46.79592 | 11.27347 | 37310 ft | 453 kts | 17° |
| 2026-04-26 18:51 | 46.85468 | 11.30623 | 37316 ft | 452 kts | 17° |
| 2026-04-26 18:51 | 46.91334 | 11.33903 | 37321 ft | 453 kts | 17° |
| 2026-04-26 18:52 | 46.96257 | 11.36428 | 37325 ft | 451 kts | 12° |
| 2026-04-26 18:52 | 47.03405 | 11.37874 | 37313 ft | 443 kts | 358° |
| 2026-04-26 18:53 | 47.09540 | 11.37854 | 37313 ft | 442 kts | 355° |
| 2026-04-26 18:53 | 47.15736 | 11.37653 | 37292 ft | 443 kts | 355° |
| 2026-04-26 18:54 | 47.21891 | 11.37498 | 37268 ft | 442 kts | 355° |
| 2026-04-26 18:54 | 47.28013 | 11.37397 | 37248 ft | 442 kts | 356° |
| 2026-04-26 18:55 | 47.34152 | 11.37641 | 37266 ft | 443 kts | 0° |
| 2026-04-26 18:55 | 47.40318 | 11.38327 | 37283 ft | 444 kts | 1° |
| 2026-04-26 18:56 | 47.46449 | 11.39066 | 37285 ft | 444 kts | 1° |
| 2026-04-26 18:56 | 47.52592 | 11.39772 | 37290 ft | 444 kts | 1° |
| 2026-04-26 18:57 | 47.56704 | 11.40226 | 37288 ft | 444 kts | 1° |
| 2026-04-26 18:57 | 47.64903 | 11.41112 | 37280 ft | 443 kts | 0° |
| 2026-04-26 18:58 | 47.71045 | 11.41767 | 37265 ft | 443 kts | 0° |
| 2026-04-26 18:58 | 47.77201 | 11.42423 | 37256 ft | 443 kts | 0° |
| 2026-04-26 18:59 | 47.83340 | 11.43074 | 37252 ft | 442 kts | 1° |
| 2026-04-26 18:59 | 47.89477 | 11.43728 | 37236 ft | 443 kts | 1° |
| 2026-04-26 19:00 | 47.95619 | 11.44386 | 37236 ft | 443 kts | 1° |
| 2026-04-26 19:00 | 48.01750 | 11.45043 | 37239 ft | 442 kts | 1° |
| 2026-04-26 19:01 | 48.07885 | 11.45703 | 37240 ft | 442 kts | 1° |
| 2026-04-26 19:01 | 48.14012 | 11.46361 | 37237 ft | 442 kts | 1° |
| 2026-04-26 19:02 | 48.20160 | 11.47022 | 37239 ft | 442 kts | 1° |
| 2026-04-26 19:02 | 48.24282 | 11.47468 | 37236 ft | 441 kts | 1° |
| 2026-04-26 19:03 | 48.32428 | 11.48351 | 37238 ft | 441 kts | 1° |
| 2026-04-26 19:03 | 48.38552 | 11.49016 | 37239 ft | 440 kts | 1° |
| 2026-04-26 19:04 | 48.44662 | 11.49683 | 37241 ft | 440 kts | 1° |
| 2026-04-26 19:04 | 48.50754 | 11.50348 | 37239 ft | 441 kts | 1° |
| 2026-04-26 19:05 | 48.59905 | 11.51349 | 37249 ft | 440 kts | 1° |
| 2026-04-26 19:06 | 48.66018 | 11.52020 | 37251 ft | 440 kts | 1° |
| 2026-04-26 19:06 | 48.72106 | 11.52690 | 37249 ft | 439 kts | 1° |
| 2026-04-26 19:07 | 48.78179 | 11.53362 | 37252 ft | 438 kts | 1° |
| 2026-04-26 19:07 | 48.84249 | 11.54033 | 37251 ft | 439 kts | 1° |
| 2026-04-26 19:08 | 48.90346 | 11.54711 | 37251 ft | 438 kts | 0° |
| 2026-04-26 19:08 | 48.96392 | 11.55384 | 37253 ft | 438 kts | 1° |
| 2026-04-26 19:09 | 49.02464 | 11.56060 | 37257 ft | 438 kts | 1° |
| 2026-04-26 19:09 | 49.08547 | 11.56739 | 37254 ft | 438 kts | 1° |
| 2026-04-26 19:10 | 49.14646 | 11.57423 | 37254 ft | 438 kts | 1° |
| 2026-04-26 19:10 | 49.20699 | 11.58103 | 37246 ft | 437 kts | 1° |
| 2026-04-26 19:11 | 49.26754 | 11.58783 | 37247 ft | 436 kts | 1° |
| 2026-04-26 19:11 | 49.32819 | 11.59464 | 37250 ft | 437 kts | 1° |
| 2026-04-26 19:12 | 49.38875 | 11.60150 | 37254 ft | 437 kts | 0° |
| 2026-04-26 19:12 | 49.44882 | 11.60834 | 37258 ft | 436 kts | 0° |
| 2026-04-26 19:13 | 49.49912 | 11.61406 | 37261 ft | 436 kts | 0° |
| 2026-04-26 19:13 | 49.56939 | 11.62205 | 37267 ft | 435 kts | 1° |
| 2026-04-26 19:14 | 49.62948 | 11.62893 | 37274 ft | 434 kts | 1° |
| 2026-04-26 19:14 | 49.68988 | 11.63583 | 37268 ft | 434 kts | 0° |
| 2026-04-26 19:15 | 49.74980 | 11.64271 | 37281 ft | 434 kts | 0° |
| 2026-04-26 19:15 | 49.81009 | 11.64966 | 37281 ft | 434 kts | 1° |
| 2026-04-26 19:16 | 49.87001 | 11.65657 | 37281 ft | 434 kts | 1° |
| 2026-04-26 19:16 | 49.92015 | 11.66238 | 37275 ft | 434 kts | 1° |
| 2026-04-26 19:17 | 49.99018 | 11.67051 | 37275 ft | 432 kts | 1° |
| 2026-04-26 19:17 | 50.05035 | 11.67747 | 37270 ft | 433 kts | 1° |
| 2026-04-26 19:18 | 50.11071 | 11.68447 | 37269 ft | 434 kts | 1° |
| 2026-04-26 19:18 | 50.17108 | 11.69155 | 37277 ft | 433 kts | 1° |
| 2026-04-26 19:19 | 50.23106 | 11.69859 | 37281 ft | 434 kts | 1° |
| 2026-04-26 19:19 | 50.29123 | 11.70565 | 37288 ft | 432 kts | 1° |
| 2026-04-26 19:20 | 50.35130 | 11.71272 | 37290 ft | 433 kts | 1° |
| 2026-04-26 19:20 | 50.41154 | 11.71982 | 37290 ft | 433 kts | 1° |
| 2026-04-26 19:21 | 50.47153 | 11.72692 | 37289 ft | 432 kts | 1° |
| 2026-04-26 19:21 | 50.53166 | 11.73407 | 37292 ft | 433 kts | 1° |
| 2026-04-26 19:22 | 50.59194 | 11.74123 | 37292 ft | 433 kts | 1° |
| 2026-04-26 19:22 | 50.64178 | 11.74719 | 37295 ft | 432 kts | 1° |
| 2026-04-26 19:23 | 50.70185 | 11.75439 | 37300 ft | 432 kts | 1° |
| 2026-04-26 19:23 | 50.77174 | 11.76273 | 37302 ft | 431 kts | 1° |
| 2026-04-26 19:24 | 50.83149 | 11.76991 | 37296 ft | 431 kts | 1° |
| 2026-04-26 19:24 | 50.92175 | 11.78080 | 37299 ft | 432 kts | 1° |
| 2026-04-26 19:25 | 50.96187 | 11.78565 | 37306 ft | 432 kts | 1° |
| 2026-04-26 19:25 | 51.04203 | 11.79534 | 37307 ft | 431 kts | 1° |
| 2026-04-26 19:26 | 51.09205 | 11.80142 | 37306 ft | 431 kts | 1° |
| 2026-04-26 19:26 | 51.16164 | 11.80990 | 37310 ft | 430 kts | 1° |
| 2026-04-26 19:27 | 51.21152 | 11.81599 | 37314 ft | 430 kts | 1° |
| 2026-04-26 19:27 | 51.28116 | 11.82452 | 37315 ft | 430 kts | 1° |
| 2026-04-26 19:28 | 51.34098 | 11.83186 | 37315 ft | 430 kts | 1° |
| 2026-04-26 19:28 | 51.39081 | 11.83798 | 37316 ft | 430 kts | 1° |
| 2026-04-26 19:29 | 51.46034 | 11.84658 | 37313 ft | 430 kts | 1° |
| 2026-04-26 19:29 | 51.52001 | 11.85398 | 37314 ft | 429 kts | 1° |
| 2026-04-26 19:30 | 51.57832 | 11.86122 | 37315 ft | 429 kts | 1° |
| 2026-04-26 19:30 | 51.61810 | 11.86616 | 37315 ft | 429 kts | 1° |
| 2026-04-26 19:31 | 51.69758 | 11.87605 | 37313 ft | 429 kts | 1° |
| 2026-04-26 19:31 | 51.75738 | 11.88352 | 37318 ft | 428 kts | 1° |
| 2026-04-26 19:32 | 51.81660 | 11.89095 | 37314 ft | 428 kts | 0° |
| 2026-04-26 19:32 | 51.87593 | 11.89841 | 37322 ft | 428 kts | 1° |
| 2026-04-26 19:33 | 51.93551 | 11.90594 | 37318 ft | 427 kts | 0° |
| 2026-04-26 19:33 | 51.98487 | 11.91217 | 37323 ft | 428 kts | 0° |
| 2026-04-26 19:34 | 52.05409 | 11.92094 | 37319 ft | 427 kts | 1° |
| 2026-04-26 19:34 | 52.11345 | 11.92848 | 37323 ft | 427 kts | 0° |
| 2026-04-26 19:35 | 52.17227 | 11.93598 | 37327 ft | 427 kts | 0° |
| 2026-04-26 19:35 | 52.23129 | 11.94350 | 37325 ft | 427 kts | 0° |
| 2026-04-26 19:36 | 52.27059 | 11.94851 | 37325 ft | 427 kts | 0° |
| 2026-04-26 19:36 | 52.34975 | 11.95867 | 37325 ft | 427 kts | 0° |
| 2026-04-26 19:37 | 52.40855 | 11.96626 | 37325 ft | 426 kts | 0° |
| 2026-04-26 19:37 | 52.46758 | 11.97389 | 37325 ft | 425 kts | 0° |
| 2026-04-26 19:38 | 52.51678 | 11.98026 | 37324 ft | 425 kts | 0° |
| 2026-04-26 19:38 | 52.58568 | 11.98918 | 37325 ft | 426 kts | 0° |
| 2026-04-26 19:39 | 52.64431 | 11.99682 | 37324 ft | 425 kts | 0° |
| 2026-04-26 19:39 | 52.69324 | 12.00324 | 37326 ft | 424 kts | 0° |
| 2026-04-26 19:40 | 52.75205 | 12.01091 | 37327 ft | 424 kts | 0° |
| 2026-04-26 19:40 | 52.82060 | 12.01989 | 37327 ft | 424 kts | 0° |
| 2026-04-26 19:41 | 52.86860 | 12.02621 | 37327 ft | 424 kts | 0° |
| 2026-04-26 19:41 | 52.91755 | 12.03268 | 37325 ft | 425 kts | 0° |
| 2026-04-26 19:42 | 52.99593 | 12.04303 | 37324 ft | 424 kts | 0° |
| 2026-04-26 19:42 | 53.05447 | 12.05083 | 37321 ft | 423 kts | 0° |
| 2026-04-26 19:43 | 53.11305 | 12.05860 | 37322 ft | 423 kts | 0° |
| 2026-04-26 19:43 | 53.17141 | 12.06636 | 37320 ft | 424 kts | 0° |
| 2026-04-26 19:44 | 53.23022 | 12.07424 | 37322 ft | 424 kts | 0° |
| 2026-04-26 19:44 | 53.28861 | 12.08208 | 37323 ft | 424 kts | 0° |
| 2026-04-26 19:45 | 53.33726 | 12.08863 | 37322 ft | 423 kts | 0° |
| 2026-04-26 19:45 | 53.40550 | 12.09785 | 37320 ft | 422 kts | 0° |
| 2026-04-26 19:46 | 53.45423 | 12.10444 | 37324 ft | 423 kts | 0° |
| 2026-04-26 19:46 | 53.51295 | 12.11233 | 36940 ft | 427 kts | 0° |
| 2026-04-26 19:47 | 53.55238 | 12.11763 | 36289 ft | 427 kts | 0° |
| 2026-04-26 19:47 | 53.56239 | 12.11899 | 36130 ft | 426 kts | 0° |
| 2026-04-26 19:47 | 53.61089 | 12.12563 | 35373 ft | 421 kts | 360° |
| 2026-04-26 19:47 | 53.63985 | 12.12960 | 34906 ft | 421 kts | 360° |
| 2026-04-26 19:48 | 53.65950 | 12.13228 | 34571 ft | 424 kts | 360° |
| 2026-04-26 19:48 | 53.69859 | 12.13761 | 33857 ft | 425 kts | 0° |
| 2026-04-26 19:48 | 53.72788 | 12.14162 | 33327 ft | 426 kts | 0° |
| 2026-04-26 19:48 | 53.74749 | 12.14431 | 32970 ft | 426 kts | 0° |
| 2026-04-26 19:49 | 53.78662 | 12.14971 | 32258 ft | 426 kts | 0° |
| 2026-04-26 19:49 | 53.80629 | 12.15243 | 31900 ft | 427 kts | 0° |
| 2026-04-26 19:49 | 53.84414 | 12.15763 | 31213 ft | 429 kts | 0° |
| 2026-04-26 19:49 | 53.87382 | 12.16172 | 30670 ft | 430 kts | 0° |
| 2026-04-26 19:50 | 53.90360 | 12.16584 | 30104 ft | 431 kts | 0° |
| 2026-04-26 19:50 | 53.93335 | 12.16995 | 29541 ft | 432 kts | 0° |
| 2026-04-26 19:50 | 53.96320 | 12.17408 | 28979 ft | 434 kts | 0° |
| 2026-04-26 19:50 | 53.99322 | 12.17822 | 28417 ft | 435 kts | 0° |
| 2026-04-26 19:51 | 54.02338 | 12.18240 | 27856 ft | 437 kts | 0° |
| 2026-04-26 19:51 | 54.05359 | 12.18660 | 27298 ft | 438 kts | 0° |
| 2026-04-26 19:51 | 54.07385 | 12.18942 | 26927 ft | 440 kts | 0° |
| 2026-04-26 19:51 | 54.11472 | 12.19511 | 26199 ft | 442 kts | 1° |
| 2026-04-26 19:52 | 54.14513 | 12.19936 | 25670 ft | 443 kts | 1° |
| 2026-04-26 19:52 | 54.17586 | 12.20368 | 25144 ft | 441 kts | 1° |
| 2026-04-26 19:52 | 54.19617 | 12.20656 | 24799 ft | 439 kts | 1° |
| 2026-04-26 19:52 | 54.22613 | 12.21082 | 24289 ft | 435 kts | 1° |
| 2026-04-26 19:53 | 54.25603 | 12.21507 | 23780 ft | 431 kts | 1° |
| 2026-04-26 19:53 | 54.28565 | 12.21927 | 23271 ft | 427 kts | 1° |
| 2026-04-26 19:53 | 54.32519 | 12.22487 | 22585 ft | 423 kts | 0° |
| 2026-04-26 19:53 | 54.35421 | 12.22897 | 22079 ft | 420 kts | 1° |
| 2026-04-26 19:54 | 54.37334 | 12.23167 | 21743 ft | 417 kts | 0° |
| 2026-04-26 19:54 | 54.40197 | 12.23571 | 21238 ft | 414 kts | 1° |
| 2026-04-26 19:54 | 54.43065 | 12.23976 | 20730 ft | 412 kts | 1° |
| 2026-04-26 19:54 | 54.45861 | 12.24375 | 20388 ft | 402 kts | 1° |
| 2026-04-26 19:55 | 54.49507 | 12.24899 | 20048 ft | 391 kts | 0° |
| 2026-04-26 19:55 | 54.52227 | 12.25286 | 19796 ft | 392 kts | 0° |
| 2026-04-26 19:55 | 54.54020 | 12.25539 | 19629 ft | 394 kts | 0° |
| 2026-04-26 19:55 | 54.57631 | 12.26048 | 19293 ft | 393 kts | 0° |
| 2026-04-26 19:56 | 54.60369 | 12.26437 | 19041 ft | 390 kts | 0° |
| 2026-04-26 19:56 | 54.62145 | 12.26691 | 18874 ft | 389 kts | 0° |
| 2026-04-26 19:56 | 54.64839 | 12.27076 | 18617 ft | 387 kts | 0° |
| 2026-04-26 19:56 | 54.68380 | 12.27583 | 18284 ft | 386 kts | 0° |
| 2026-04-26 19:57 | 54.70153 | 12.27837 | 18119 ft | 384 kts | 0° |
| 2026-04-26 19:57 | 54.73711 | 12.28347 | 17789 ft | 384 kts | 0° |
| 2026-04-26 19:57 | 54.76337 | 12.28725 | 17541 ft | 383 kts | 0° |
| 2026-04-26 19:57 | 54.78985 | 12.29107 | 17287 ft | 381 kts | 1° |
| 2026-04-26 19:58 | 54.81610 | 12.29487 | 17035 ft | 379 kts | 0° |
| 2026-04-26 19:58 | 54.84216 | 12.29864 | 16785 ft | 377 kts | 1° |
| 2026-04-26 19:58 | 54.86820 | 12.30241 | 16535 ft | 376 kts | 0° |
| 2026-04-26 19:58 | 54.89430 | 12.30620 | 16229 ft | 373 kts | 1° |
| 2026-04-26 19:59 | 54.91986 | 12.31117 | 15664 ft | 371 kts | 4° |
| 2026-04-26 19:59 | 54.94481 | 12.32142 | 15028 ft | 373 kts | 14° |
| 2026-04-26 19:59 | 54.96825 | 12.34001 | 14367 ft | 376 kts | 24° |
| 2026-04-26 19:59 | 54.99054 | 12.36360 | 13696 ft | 376 kts | 28° |
| 2026-04-26 20:00 | 55.00482 | 12.38017 | 13252 ft | 375 kts | 29° |
| 2026-04-26 20:00 | 55.03332 | 12.41442 | 12340 ft | 373 kts | 30° |
| 2026-04-26 20:00 | 55.05427 | 12.43968 | 11718 ft | 369 kts | 30° |
| 2026-04-26 20:00 | 55.06841 | 12.45661 | 11432 ft | 362 kts | 30° |
| 2026-04-26 20:01 | 55.09530 | 12.48863 | 11155 ft | 343 kts | 29° |
| 2026-04-26 20:01 | 55.11457 | 12.51144 | 11017 ft | 328 kts | 29° |
| 2026-04-26 20:01 | 55.13295 | 12.53310 | 10862 ft | 315 kts | 29° |
| 2026-04-26 20:01 | 55.14947 | 12.55718 | 10688 ft | 310 kts | 45° |
| 2026-04-26 20:02 | 55.16023 | 12.58877 | 10554 ft | 298 kts | 60° |
| 2026-04-26 20:02 | 55.16777 | 12.62183 | 10161 ft | 292 kts | 64° |
| 2026-04-26 20:02 | 55.17464 | 12.65498 | 9640 ft | 290 kts | 65° |
| 2026-04-26 20:02 | 55.17691 | 12.66602 | 9472 ft | 289 kts | 65° |
| 2026-04-26 20:03 | 55.18795 | 12.71969 | 9300 ft | 280 kts | 65° |
| 2026-04-26 20:03 | 55.19461 | 12.75239 | 9310 ft | 288 kts | 69° |
| 2026-04-26 20:03 | 55.20023 | 12.78586 | 9294 ft | 288 kts | 62° |
| 2026-04-26 20:03 | 55.21096 | 12.81406 | 9298 ft | 276 kts | 36° |
| 2026-04-26 20:04 | 55.22710 | 12.83008 | 9300 ft | 260 kts | 9° |
| 2026-04-26 20:04 | 55.23881 | 12.83208 | 9303 ft | 252 kts | 351° |
| 2026-04-26 20:04 | 55.25951 | 12.81638 | 9322 ft | 247 kts | 321° |
| 2026-04-26 20:04 | 55.27218 | 12.79610 | 9182 ft | 252 kts | 316° |
| 2026-04-26 20:05 | 55.28045 | 12.78169 | 8926 ft | 254 kts | 315° |
| 2026-04-26 20:05 | 55.29277 | 12.75989 | 8491 ft | 249 kts | 315° |
| 2026-04-26 20:05 | 55.30476 | 12.73851 | 8076 ft | 245 kts | 313° |
| 2026-04-26 20:05 | 55.31858 | 12.70781 | 7532 ft | 240 kts | 306° |
| 2026-04-26 20:06 | 55.32797 | 12.68397 | 7118 ft | 235 kts | 305° |
| 2026-04-26 20:06 | 55.33405 | 12.66830 | 6874 ft | 232 kts | 305° |
| 2026-04-26 20:06 | 55.34592 | 12.63790 | 6405 ft | 225 kts | 305° |
| 2026-04-26 20:06 | 55.35474 | 12.61543 | 6078 ft | 219 kts | 305° |
| 2026-04-26 20:07 | 55.36320 | 12.59397 | 5748 ft | 211 kts | 305° |
| 2026-04-26 20:07 | 55.37134 | 12.57347 | 5412 ft | 204 kts | 305° |
| 2026-04-26 20:07 | 55.37934 | 12.55343 | 5070 ft | 198 kts | 305° |
| 2026-04-26 20:07 | 55.38725 | 12.53366 | 4732 ft | 195 kts | 305° |
| 2026-04-26 20:08 | 55.39499 | 12.51441 | 4408 ft | 196 kts | 305° |
| 2026-04-26 20:08 | 55.40296 | 12.49473 | 4069 ft | 198 kts | 305° |
| 2026-04-26 20:08 | 55.41088 | 12.47532 | 3734 ft | 198 kts | 305° |
| 2026-04-26 20:08 | 55.41889 | 12.45579 | 3377 ft | 195 kts | 305° |
| 2026-04-26 20:09 | 55.42672 | 12.43684 | 3050 ft | 190 kts | 306° |
| 2026-04-26 20:09 | 55.43518 | 12.41968 | 2712 ft | 189 kts | 324° |
| 2026-04-26 20:09 | 55.44760 | 12.41299 | 2383 ft | 192 kts | 2° |
| 2026-04-26 20:09 | 55.46052 | 12.41844 | 2084 ft | 192 kts | 18° |
| 2026-04-26 20:10 | 55.46857 | 12.42427 | 2006 ft | 186 kts | 24° |
| 2026-04-26 20:10 | 55.47939 | 12.43551 | 2029 ft | 179 kts | 32° |
| 2026-04-26 20:10 | 55.48965 | 12.44879 | 2028 ft | 187 kts | 36° |
| 2026-04-26 20:10 | 55.49973 | 12.46306 | 2014 ft | 184 kts | 38° |
| 2026-04-26 20:11 | 55.50932 | 12.47723 | 2020 ft | 177 kts | 38° |
| 2026-04-26 20:11 | 55.51873 | 12.49134 | 2012 ft | 178 kts | 39° |
| 2026-04-26 20:11 | 55.53098 | 12.50993 | 1691 ft | 173 kts | 39° |
| 2026-04-26 20:12 | 55.54842 | 12.53661 | 1272 ft | 160 kts | 40° |
| 2026-04-26 20:12 | 55.55393 | 12.54507 | 1113 ft | 162 kts | 40° |
| 2026-04-26 20:12 | 55.56538 | 12.56259 | 811 ft | 168 kts | 40° |
| 2026-04-26 20:12 | 55.57416 | 12.57579 | 647 ft | 162 kts | 39° |
| 2026-04-26 20:13 | 55.58231 | 12.58792 | 427 ft | 145 kts | 41° |
| 2026-04-26 20:13 | 55.58992 | 12.59973 | 155 ft | 151 kts | 41° |
| 2026-04-26 20:13 | 55.59776 | 12.61209 | 42 ft | 142 kts | 40° |
| 2026-04-26 20:13 | 55.60338 | 12.62081 | 46 ft | 79 kts | 42° |
| 2026-04-26 20:14 | 55.60667 | 12.62593 | 48 ft | 44 kts | 40° |
| 2026-04-26 20:14 | 55.60887 | 12.62830 | 50 ft | 36 kts | 18° |
| 2026-04-26 20:14 | 55.61016 | 12.62884 | 52 ft | 18 kts | 12° |
| 2026-04-26 20:14 | 55.61165 | 12.62980 | 53 ft | 21 kts | 39° |
| 2026-04-26 20:15 | 55.61281 | 12.63163 | 51 ft | 22 kts | 41° |
| 2026-04-26 20:15 | 55.61356 | 12.63280 | 52 ft | 23 kts | 41° |
| 2026-04-26 20:15 | 55.61519 | 12.63531 | 53 ft | 36 kts | 41° |
| 2026-04-26 20:15 | 55.61738 | 12.63872 | 52 ft | 25 kts | 41° |
| 2026-04-26 20:16 | 55.61800 | 12.63968 | 53 ft | 17 kts | 41° |
| 2026-04-26 20:16 | 55.61917 | 12.64110 | 49 ft | 15 kts | 27° |
| 2026-04-26 20:16 | 55.61978 | 12.64164 | 49 ft | 15 kts | 25° |
| 2026-04-26 20:16 | 55.62076 | 12.64247 | 46 ft | 16 kts | 26° |
| 2026-04-26 20:17 | 55.62176 | 12.64327 | 46 ft | 14 kts | 25° |
| 2026-04-26 20:17 | 55.62246 | 12.64414 | 46 ft | 10 kts | 52° |
| 2026-04-26 20:17 | 55.62275 | 12.64511 | 46 ft | 8 kts | 66° |
| 2026-04-26 20:17 | 55.62296 | 12.64591 | 46 ft | 5 kts | 66° |
| 2026-04-26 20:18 | 55.62317 | 12.64675 | 46 ft | 6 kts | 66° |
| 2026-04-26 20:18 | 55.62330 | 12.64727 | 46 ft | 7 kts | 66° |
| 2026-04-26 20:18 | 55.62349 | 12.64855 | 47 ft | 11 kts | 101° |
| 2026-04-26 20:18 | 55.62307 | 12.64987 | 48 ft | 5 kts | 123° |
| 2026-04-26 20:19 | 55.62292 | 12.65029 | 48 ft | 8 kts | 123° |
| 2026-04-26 20:19 | 55.62274 | 12.65089 | 48 ft | 8 kts | 102° |
| 2026-04-26 20:19 | 55.62287 | 12.65164 | 48 ft | 6 kts | 51° |
| 2026-04-26 20:19 | 55.62318 | 12.65197 | 49 ft | 6 kts | 15° |
| 2026-04-26 20:20 | 55.62407 | 12.65214 | 49 ft | 12 kts | 18° |
| 2026-04-26 20:20 | 55.62439 | 12.65339 | 49 ft | 11 kts | 91° |
| 2026-04-26 20:20 | 55.62439 | 12.65446 | 49 ft | 17 kts | 89° |
| 2026-04-26 20:20 | 55.62443 | 12.65727 | 48 ft | 17 kts | 89° |
| 2026-04-26 20:21 | 55.62464 | 12.65834 | 49 ft | 7 kts | 25° |
| 2026-04-26 20:21 | 55.62490 | 12.65840 | 49 ft | 5 kts | 1° |
| 2026-04-26 20:21 | 55.62513 | 12.65839 | 49 ft | 3 kts | 356° |
| 2026-04-26 20:21 | 55.62520 | 12.65839 | 49 ft | 0 kts | 359° |